Time;durP1;ratioP1;P1;durP2;ratioP2;P2;SDS_P1;SDS_P2;PMS_P1;PMS_P2;Temp;Humidity;BMP_temperature;BMP_pressure;BME280_temperature;BME280_humidity;BME280_pressure;Samples;Min_cycle;Max_cycle;Signal;HPM_P1;HPM_P2
2021/06/12 00:02:04;;;;;;;11.57;7.10;;;;;;;18.16;57.70;100009.06;5114759;27;38275;-74
2021/06/12 00:04:30;;;;;;;9.63;7.63;;;;;;;18.08;57.97;100010.16;5116369;27;20032;-73
2021/06/12 00:06:58;;;;;;;11.35;7.85;;;;;;;18.02;57.99;100013.78;5115997;27;20027;-70
2021/06/12 00:09:23;;;;;;;12.23;7.47;;;;;;;17.98;58.20;100008.00;5115170;27;20060;-74
2021/06/12 00:11:48;;;;;;;10.38;7.30;;;;;;;17.92;58.29;100014.28;5115840;27;20461;-71
2021/06/12 00:14:14;;;;;;;9.43;8.27;;;;;;;17.87;58.39;100016.81;5115949;27;20469;-73
2021/06/12 00:16:39;;;;;;;12.77;8.65;;;;;;;17.82;58.68;100009.34;5115072;27;36756;-78
2021/06/12 00:19:05;;;;;;;11.20;8.35;;;;;;;17.77;58.83;100011.94;5114567;28;20480;-74
2021/06/12 00:21:30;;;;;;;12.48;8.70;;;;;;;17.72;59.01;100009.06;5116388;27;30319;-70
2021/06/12 00:23:55;;;;;;;12.35;8.15;;;;;;;17.67;59.14;100004.31;5115254;28;20154;-71
2021/06/12 00:26:21;;;;;;;9.93;8.23;;;;;;;17.62;59.31;100008.72;5115184;27;34255;-72
2021/06/12 00:28:46;;;;;;;12.15;8.05;;;;;;;17.56;59.40;99999.66;5115256;27;29472;-78
2021/06/12 00:31:12;;;;;;;9.80;7.88;;;;;;;17.48;59.35;99998.09;5114368;28;20517;-75
2021/06/12 13:13:25;;;;;;;4.43;3.53;;;;;;;26.44;50.26;99659.34;5150753;27;20330;-71
2021/06/12 13:15:58;;;;;;;6.15;4.47;;;;;;;26.11;49.80;99656.38;5152315;27;20039;-68
2021/06/12 18:00:41;;;;;;;5.05;2.50;;;;;;;16.16;72.38;99800.59;5192864;27;20333;-68
2021/06/12 18:03:07;;;;;;;2.95;2.15;;;;;;;16.27;72.96;99803.63;5191073;27;20030;-69
2021/06/12 18:05:32;;;;;;;4.13;2.63;;;;;;;16.36;73.00;99810.38;5170164;27;35113;-68
2021/06/12 18:07:58;;;;;;;3.63;2.40;;;;;;;16.41;72.83;99813.25;5171080;27;22021;-69
2021/06/12 18:10:24;;;;;;;3.03;2.47;;;;;;;16.46;72.42;99816.09;5171500;27;20080;-70
2021/06/12 18:12:49;;;;;;;5.70;3.00;;;;;;;16.51;72.50;99816.28;5170945;27;20082;-70
2021/06/12 18:15:15;;;;;;;4.22;3.00;;;;;;;16.50;72.57;99820.00;5172112;27;20039;-68
2021/06/12 18:17:40;;;;;;;3.58;2.70;;;;;;;16.49;72.95;99810.28;5171078;27;20486;-69
2021/06/12 18:20:06;;;;;;;4.07;3.05;;;;;;;16.46;72.22;99818.78;5152009;27;20091;-68
2021/06/12 18:22:32;;;;;;;11.20;8.82;;;;;;;16.46;72.77;99818.78;5171190;27;20427;-68
2021/06/12 18:24:57;;;;;;;6.07;3.60;;;;;;;16.46;72.59;99824.16;5151803;27;42393;-76
2021/06/12 18:27:22;;;;;;;6.47;4.20;;;;;;;16.38;71.99;99830.63;5171404;27;33189;-68
2021/06/12 18:29:48;;;;;;;8.10;5.90;;;;;;;16.33;72.96;99826.94;5169326;27;28213;-72
2021/06/12 18:32:13;;;;;;;6.55;4.68;;;;;;;16.28;72.51;99837.50;5168254;27;37776;-68
2021/06/12 18:34:38;;;;;;;4.85;4.28;;;;;;;16.28;72.38;99826.75;5150714;27;20027;-67
2021/06/12 18:37:04;;;;;;;6.05;3.58;;;;;;;16.23;72.73;99830.94;5168848;27;20573;-64
2021/06/12 18:39:30;;;;;;;5.05;4.03;;;;;;;16.21;73.11;99829.50;5168941;27;20035;-65
2021/06/12 18:41:56;;;;;;;5.55;3.58;;;;;;;16.16;72.65;99840.09;5150612;27;20037;-75
2021/06/12 18:44:21;;;;;;;5.47;3.75;;;;;;;16.04;72.71;99835.38;5169549;27;20031;-73
2021/06/12 18:46:46;;;;;;;4.93;3.47;;;;;;;15.94;72.28;99836.88;5152798;27;20037;-74
2021/06/12 18:49:12;;;;;;;6.63;4.40;;;;;;;15.82;72.66;99837.56;5151666;27;33182;-73
2021/06/12 18:51:37;;;;;;;5.35;4.07;;;;;;;15.72;72.44;99845.22;5170155;27;35372;-72
2021/06/12 18:54:04;;;;;;;6.05;4.00;;;;;;;15.59;73.04;99839.91;5171450;27;20027;-71
2021/06/12 18:56:29;;;;;;;5.93;3.75;;;;;;;15.51;73.45;99844.47;5171137;27;20029;-74
2021/06/12 18:58:55;;;;;;;5.93;4.80;;;;;;;15.43;73.42;99844.66;5187040;27;30190;-74
2021/06/12 19:01:20;;;;;;;8.30;5.70;;;;;;;15.36;73.39;99843.88;5155905;27;20037;-73
2021/06/12 19:03:46;;;;;;;5.85;4.80;;;;;;;15.35;74.00;99844.91;5173014;27;31752;-73
2021/06/12 19:06:11;;;;;;;8.77;5.13;;;;;;;15.34;73.81;99844.09;5171821;27;30144;-74
2021/06/12 19:08:37;;;;;;;5.97;5.10;;;;;;;15.32;74.17;99851.53;5192184;27;20485;-73
2021/06/12 19:11:04;;;;;;;15.48;11.73;;;;;;;15.29;74.25;99848.44;5165192;27;20027;-74
2021/06/12 19:13:30;;;;;;;6.70;4.65;;;;;;;15.28;74.83;99853.00;5177381;27;20022;-74
2021/06/12 19:15:55;;;;;;;7.55;4.90;;;;;;;15.21;74.15;99861.03;5178346;27;20479;-71
2021/06/12 19:18:20;;;;;;;6.55;5.28;;;;;;;15.14;74.17;99873.63;5178009;27;20071;-73
2021/06/12 19:20:46;;;;;;;6.57;5.65;;;;;;;15.05;73.95;99882.94;5176172;27;34048;-72
2021/06/12 19:23:12;;;;;;;8.95;5.80;;;;;;;14.98;74.03;99887.47;5177222;27;34534;-73
2021/06/12 19:25:38;;;;;;;7.35;5.30;;;;;;;14.96;74.67;99879.63;5177492;27;20062;-72
2021/06/12 19:28:04;;;;;;;7.38;5.65;;;;;;;14.94;74.73;99880.84;5158541;27;20106;-72
2021/06/12 19:30:29;;;;;;;8.30;6.22;;;;;;;14.86;74.81;99890.78;5177904;27;20034;-71
2021/06/12 19:32:55;;;;;;;6.90;6.05;;;;;;;14.84;75.05;99892.84;5157899;27;20069;-72
2021/06/12 19:35:24;;;;;;;7.55;5.72;;;;;;;14.82;75.06;99896.75;5177061;27;20482;-70
2021/06/12 19:40:17;;;;;;;8.63;5.68;;;;;;;14.72;75.10;99905.19;5174124;27;20109;-74
2021/06/12 19:42:44;;;;;;;8.43;6.28;;;;;;;14.70;75.66;99897.34;5177314;27;20031;-72
2021/06/12 19:45:13;;;;;;;7.38;6.40;;;;;;;14.69;75.69;99913.63;5177394;27;20065;-73
2021/06/12 19:47:38;;;;;;;8.10;6.18;;;;;;;14.66;75.45;99911.38;5140551;27;20022;-74
2021/06/12 19:50:05;;;;;;;9.93;6.57;;;;;;;14.64;75.75;99908.06;5158320;27;20031;-72
2021/06/12 19:52:30;;;;;;;8.82;6.53;;;;;;;14.61;76.19;99913.81;5158558;27;20482;-72
2021/06/12 19:54:56;;;;;;;8.38;6.57;;;;;;;14.60;76.18;99909.47;5176604;27;32915;-69
2021/06/12 19:57:21;;;;;;;9.02;7.55;;;;;;;14.60;76.17;99914.81;5157518;27;20027;-72
2021/06/12 19:59:46;;;;;;;9.60;7.65;;;;;;;14.61;76.52;99919.16;5175767;27;36454;-71
2021/06/12 20:02:13;;;;;;;10.05;8.10;;;;;;;14.63;76.39;99919.84;5176951;27;20023;-71
2021/06/12 20:04:38;;;;;;;10.48;7.80;;;;;;;14.62;76.49;99915.47;5176612;27;20027;-72
2021/06/12 20:07:04;;;;;;;12.02;8.07;;;;;;;14.56;76.27;99912.56;5176904;27;20061;-72
2021/06/12 20:09:29;;;;;;;14.63;9.88;;;;;;;14.58;76.53;99920.38;5176977;27;20022;-71
2021/06/12 20:11:57;;;;;;;13.02;8.60;;;;;;;14.53;76.53;99921.00;5176952;27;20673;-70
2021/06/12 20:14:22;;;;;;;10.50;8.98;;;;;;;14.52;76.76;99916.69;5176933;27;20780;-70
2021/06/12 20:16:48;;;;;;;11.00;9.63;;;;;;;14.52;76.92;99914.00;5157478;27;35786;-72
2021/06/12 20:19:13;;;;;;;14.00;9.43;;;;;;;14.53;76.95;99912.97;5157848;27;20035;-72
2021/06/12 20:21:38;;;;;;;12.45;10.15;;;;;;;14.52;76.93;99919.34;5175675;27;33619;-72
2021/06/12 20:24:04;;;;;;;16.77;10.20;;;;;;;14.51;76.93;99924.91;5175732;27;29552;-70
2021/06/12 20:26:30;;;;;;;14.32;10.68;;;;;;;14.49;77.01;99930.50;5175845;27;20030;-72
2021/06/12 20:28:55;;;;;;;12.57;9.82;;;;;;;14.49;77.11;99927.81;5156686;27;28593;-69
2021/06/12 20:31:20;;;;;;;15.57;10.40;;;;;;;14.53;77.69;99933.59;5175931;27;20026;-71
2021/06/12 20:33:46;;;;;;;14.70;10.43;;;;;;;14.59;77.69;99937.31;5176017;27;33936;-71
2021/06/12 20:36:11;;;;;;;12.95;9.82;;;;;;;14.56;77.35;99942.03;5176340;27;20022;-73
2021/06/12 20:38:37;;;;;;;13.20;9.25;;;;;;;14.52;77.29;99951.53;5157840;27;20030;-72
2021/06/12 20:41:02;;;;;;;12.65;10.35;;;;;;;14.47;76.78;99961.19;5175534;27;39617;-71
2021/06/12 20:43:28;;;;;;;14.32;11.10;;;;;;;14.43;77.19;99963.44;5175188;27;21484;-73
2021/06/12 20:45:53;;;;;;;12.32;10.27;;;;;;;14.38;77.51;99958.69;5176855;27;20062;-76
2021/06/12 20:48:18;;;;;;;11.15;8.75;;;;;;;14.37;77.47;99950.88;5176001;27;25265;-71
2021/06/12 20:50:44;;;;;;;13.13;9.02;;;;;;;14.32;77.32;99959.47;5176004;27;30589;-71
2021/06/12 20:53:10;;;;;;;11.50;8.02;;;;;;;14.29;77.79;99953.72;5156959;27;32077;-73
2021/06/12 20:55:35;;;;;;;10.32;9.23;;;;;;;14.25;77.58;99952.47;5175931;27;20168;-70
2021/06/12 20:58:01;;;;;;;13.60;9.13;;;;;;;14.25;77.99;99952.47;5176034;27;20023;-72
2021/06/12 21:00:26;;;;;;;12.02;9.02;;;;;;;14.21;78.04;99955.56;5176456;27;20043;-69
2021/06/12 21:02:52;;;;;;;23.67;16.15;;;;;;;14.30;78.56;99958.06;5157052;27;20031;-68
2021/06/12 21:05:17;;;;;;;10.10;8.27;;;;;;;14.33;78.63;99969.19;5175689;27;20039;-68
2021/06/12 21:07:44;;;;;;;11.55;9.00;;;;;;;14.41;78.74;99961.97;5175848;27;24290;-68
2021/06/12 21:10:10;;;;;;;14.82;9.60;;;;;;;14.47;79.26;99959.31;5176817;27;20964;-69
2021/06/12 21:12:35;;;;;;;11.50;9.05;;;;;;;14.53;79.06;99961.22;5158263;27;20027;-67
2021/06/12 21:15:01;;;;;;;11.80;8.98;;;;;;;14.62;78.92;99979.81;5156618;27;26669;-68
2021/06/12 21:17:26;;;;;;;15.57;9.02;;;;;;;14.67;78.98;100009.56;5175759;27;28805;-69
